Prescott, Arkansas
Current Conditions -  °F | °C
As of 1:56 PM on Saturday 25 Oct 2014 (Local Time) from KADF Reporting Station
Clear Clear  
Wind Chill: 82°   Ceiling: Unl
Heat Index: 84°   Visibility: 9mi
Dew Point: 67°   Wind: 7mph
Humidity: 60%   Direction: 250°WSW
Pressure: 30.08"   Gusts: NA
Location:  33.8°N, 93.38°W
Report Text: KADF 251856Z AUTO 25006KT 9SM CLR 28/19 A3008 RMK AO2 T02770194 SLP199
Loading
Personal Weather Stations






























Interactive Weather Map
Tropical Storm Tracking
New forecast layout! Learn more

10-Day Weather Forecast

Advertisements
Track Severe Weather on mobile